Time;durP1;ratioP1;P1;durP2;ratioP2;P2;SDS_P1;SDS_P2;PMS_P1;PMS_P2;Temp;Humidity;BMP_temperature;BMP_pressure;BME280_temperature;BME280_humidity;BME280_pressure;Samples;Min_cycle;Max_cycle;Signal;HPM_P1;HPM_P2
2024/01/13 00:02:02;;;;;;;;;;;;;;;3.74;53.92;97802.78;4211503;28;5754;-68
2024/01/13 00:04:08;;;;;;;;;;;;;;;3.77;54.09;97798.13;4217521;28;5785;-71
2024/01/13 09:26:12;;;;;;;;;;;;;;;2.98;65.12;97735.81;4231210;27;10317;-67
2024/01/13 09:28:15;;;;;;;;;;;;;;;3.25;64.40;97727.53;4231051;28;6351;-67
2024/01/13 09:30:18;;;;;;;;;;;;;;;3.48;64.04;97723.84;4231467;28;5801;-68
2024/01/13 09:32:22;;;;;;;;;;;;;;;3.64;63.57;97728.66;4230291;28;6330;-68
2024/01/13 09:34:26;;;;;;;;;;;;;;;3.79;62.99;97722.97;4231306;28;5617;-67
2024/01/13 09:36:28;;;;;;;;;;;;;;;3.92;62.91;97722.78;4231123;28;6529;-67
2024/01/13 09:38:31;;;;;;;;;;;;;;;4.07;62.40;97721.47;4221836;28;5778;-67
2024/01/13 09:40:39;;;;;;;;;;;;;;;4.16;62.23;97713.81;4221445;28;5791;-67
2024/01/13 09:42:51;;;;;;;;;;;;;;;4.22;61.96;97721.97;4222665;28;6302;-68
2024/01/13 09:44:54;;;;;;;;;;;;;;;4.23;61.57;97710.56;4228106;28;5613;-68
2024/01/13 09:46:59;;;;;;;;;;;;;;;4.27;61.37;97703.25;4229726;28;5726;-67
2024/01/13 09:49:07;;;;;;;;;;;;;;;4.30;60.89;97700.38;4230342;28;5748;-67
2024/01/13 09:51:10;;;;;;;;;;;;;;;4.38;61.01;97709.22;4218420;28;5806;-67
2024/01/13 09:53:29;;;;;;;;;;;;;;;4.40;60.70;97716.94;4222428;28;5624;-68
2024/01/13 09:55:34;;;;;;;;;;;;;;;4.43;60.37;97721.94;4222660;28;5750;-68
2024/01/13 09:57:37;;;;;;;;;;;;;;;4.47;60.44;97714.63;4222887;28;5677;-67
2024/01/13 09:59:42;;;;;;;;;;;;;;;4.46;59.82;97711.19;4227315;28;5752;-67
2024/01/13 10:01:44;;;;;;;;;;;;;;;4.50;59.83;97719.59;4231120;28;5768;-67
2024/01/13 10:03:47;;;;;;;;;;;;;;;4.53;59.82;97717.56;4226122;28;6480;-67
2024/01/13 10:05:52;;;;;;;;;;;;;;;4.53;59.83;97712.34;4230934;28;5711;-67
2024/01/13 10:07:56;;;;;;;;;;;;;;;4.55;59.45;97713.03;4230927;28;5620;-66
2024/01/13 10:10:00;;;;;;;;;;;;;;;4.55;59.43;97710.41;4230191;28;6635;-66
2024/01/13 10:12:15;;;;;;;;;;;;;;;4.57;59.24;97707.66;4229271;28;5787;-66
2024/01/13 10:14:21;;;;;;;;;;;;;;;4.56;58.94;97711.22;4230471;28;5693;-66
2024/01/13 10:16:28;;;;;;;;;;;;;;;4.54;58.81;97708.75;4229080;28;5620;-67
2024/01/13 10:18:32;;;;;;;;;;;;;;;4.52;58.97;97702.78;4230530;28;5756;-67
2024/01/13 10:20:36;;;;;;;;;;;;;;;4.51;58.76;97702.94;4217485;28;5694;-66
2024/01/13 10:22:40;;;;;;;;;;;;;;;4.51;58.78;97705.53;4230715;28;5942;-66
2024/01/13 10:24:43;;;;;;;;;;;;;;;4.49;58.87;97707.47;4229371;28;5827;-66
2024/01/13 10:26:47;;;;;;;;;;;;;;;4.47;58.63;97712.03;4213164;28;5703;-67
2024/01/13 10:28:50;;;;;;;;;;;;;;;4.46;58.48;97700.72;4213937;28;5692;-67
2024/01/13 10:30:55;;;;;;;;;;;;;;;4.46;58.35;97697.28;4216397;28;5739;-66
2024/01/13 10:33:00;;;;;;;;;;;;;;;4.48;58.29;97704.03;4208761;28;5609;-66
2024/01/13 10:35:04;;;;;;;;;;;;;;;4.50;58.29;97701.28;4217358;28;5744;-67
2024/01/13 10:37:08;;;;;;;;;;;;;;;4.53;58.33;97695.75;4209523;28;5625;-67
2024/01/13 10:39:12;;;;;;;;;;;;;;;4.55;58.29;97696.47;4214678;28;5612;-67
2024/01/13 10:41:18;;;;;;;;;;;;;;;4.56;57.96;97693.72;4218595;28;5800;-66
2024/01/13 10:43:33;;;;;;;;;;;;;;;4.59;57.94;97688.22;4217395;28;5696;-67
2024/01/13 10:45:41;;;;;;;;;;;;;;;4.60;57.64;97687.25;4218000;28;5617;-67
2024/01/13 10:47:49;;;;;;;;;;;;;;;4.59;57.46;97680.34;4205983;28;5775;-67
2024/01/13 10:49:54;;;;;;;;;;;;;;;4.61;57.80;97677.59;4214865;28;5621;-67
2024/01/13 10:51:58;;;;;;;;;;;;;;;4.67;57.66;97672.66;4209448;28;6437;-68
2024/01/13 10:54:03;;;;;;;;;;;;;;;4.71;57.64;97672.38;4217525;28;5608;-67
2024/01/13 10:56:08;;;;;;;;;;;;;;;4.72;57.73;97667.00;4214652;28;5613;-67
2024/01/13 10:58:12;;;;;;;;;;;;;;;4.80;57.57;97661.09;4212470;28;5684;-67
2024/01/13 11:00:17;;;;;;;;;;;;;;;4.83;57.44;97658.19;4212678;28;5637;-67
2024/01/13 11:02:20;;;;;;;;;;;;;;;4.82;57.24;97660.00;4213575;28;5700;-66
2024/01/13 11:04:24;;;;;;;;;;;;;;;4.79;57.35;97664.69;4212697;28;5628;-67
2024/01/13 11:06:29;;;;;;;;;;;;;;;4.78;57.32;97661.25;4217367;28;5719;-66
2024/01/13 11:08:32;;;;;;;;;;;;;;;4.72;56.95;97656.53;4210917;28;5806;-60
2024/01/13 11:10:38;;;;;;;;;;;;;;;4.71;56.99;97652.25;4213667;28;5620;-59
2024/01/13 11:12:46;;;;;;;;;;;;;;;4.72;57.05;97650.47;4207681;28;6038;-59
2024/01/13 11:15:01;;;;;;;;;;;;;;;4.72;57.00;97653.09;4214835;28;5681;-60
2024/01/13 11:17:06;;;;;;;;;;;;;;;4.74;56.86;97644.13;4218277;28;6471;-59
2024/01/13 11:19:09;;;;;;;;;;;;;;;4.77;56.96;97641.25;4218709;28;5677;-59
2024/01/13 11:21:13;;;;;;;;;;;;;;;4.76;56.68;97644.00;4210582;28;5682;-59
2024/01/13 11:23:19;;;;;;;;;;;;;;;4.73;56.56;97646.88;4218865;28;5618;-60
2024/01/13 11:25:25;;;;;;;;;;;;;;;4.68;56.79;97642.06;4218479;28;5617;-59
2024/01/13 11:27:30;;;;;;;;;;;;;;;4.71;56.69;97639.16;4218903;28;5682;-59
2024/01/13 11:29:34;;;;;;;;;;;;;;;4.72;56.65;97640.81;4218893;28;5605;-59
2024/01/13 11:31:39;;;;;;;;;;;;;;;4.73;56.49;97633.78;4218499;28;5657;-60
2024/01/13 11:33:50;;;;;;;;;;;;;;;4.73;56.31;97628.53;4218774;28;5693;-60
2024/01/13 11:35:53;;;;;;;;;;;;;;;4.72;56.27;97632.97;4218367;28;5665;-60
2024/01/13 11:37:57;;;;;;;;;;;;;;;4.68;56.34;97626.34;4217588;28;5605;-60
2024/01/13 11:40:05;;;;;;;;;;;;;;;4.66;56.45;97623.03;4218656;28;5735;-59
2024/01/13 11:42:11;;;;;;;;;;;;;;;4.71;56.39;97633.09;4218702;28;5724;-60
2024/01/13 11:44:21;;;;;;;;;;;;;;;4.68;56.27;97627.16;4210374;28;5700;-60
2024/01/13 11:46:24;;;;;;;;;;;;;;;4.72;56.26;97616.41;4218038;28;5820;-60
2024/01/13 11:48:40;;;;;;;;;;;;;;;4.75;56.15;97624.81;4218503;28;5887;-59
2024/01/13 11:50:50;;;;;;;;;;;;;;;4.74;56.00;97620.53;4218716;28;5658;-60
2024/01/13 11:52:54;;;;;;;;;;;;;;;4.80;56.05;97613.94;4218105;28;5713;-60
2024/01/13 11:54:57;;;;;;;;;;;;;;;4.77;55.96;97612.44;4218694;28;5618;-68
2024/01/13 11:57:04;;;;;;;;;;;;;;;4.76;55.83;97612.56;4218407;28;6932;-72
2024/01/13 11:59:07;;;;;;;;;;;;;;;4.76;55.84;97615.19;4218488;28;5605;-68
2024/01/13 12:01:11;;;;;;;;;;;;;;;4.78;55.81;97611.47;4218301;28;5625;-59
2024/01/13 12:03:16;;;;;;;;;;;;;;;4.78;55.67;97602.78;4217930;28;5669;-59
2024/01/13 12:05:19;;;;;;;;;;;;;;;4.77;55.72;97603.75;4218121;28;5658;-59
2024/01/13 12:07:24;;;;;;;;;;;;;;;4.78;55.59;97600.16;4218133;28;5689;-60
2024/01/13 12:09:27;;;;;;;;;;;;;;;4.79;55.60;97596.56;4217956;28;5677;-59
2024/01/13 12:11:30;;;;;;;;;;;;;;;4.83;55.51;97592.72;4217384;28;5813;-59
2024/01/13 12:13:41;;;;;;;;;;;;;;;4.87;55.64;97589.69;4217857;28;5609;-59
2024/01/13 12:15:46;;;;;;;;;;;;;;;4.90;55.52;97588.59;4217295;28;5600;-60
2024/01/13 12:17:53;;;;;;;;;;;;;;;4.91;55.51;97591.06;4215112;28;5625;-60
2024/01/13 12:19:57;;;;;;;;;;;;;;;4.92;55.41;97587.47;4212084;28;5657;-60
2024/01/13 12:21:59;;;;;;;;;;;;;;;4.88;55.31;97580.03;4214875;28;5712;-60
2024/01/13 12:24:02;;;;;;;;;;;;;;;4.84;55.50;97576.03;4199186;28;5627;-59
2024/01/13 12:26:06;;;;;;;;;;;;;;;4.80;55.50;97574.66;4215949;28;5716;-59
2024/01/13 12:28:15;;;;;;;;;;;;;;;4.80;55.33;97577.28;4209265;28;5609;-59
2024/01/13 12:30:20;;;;;;;;;;;;;;;4.78;55.55;97561.69;4201859;28;5631;-59
2024/01/13 12:32:30;;;;;;;;;;;;;;;4.82;55.43;97567.47;4217263;28;5681;-59
2024/01/13 12:34:35;;;;;;;;;;;;;;;4.89;55.65;97563.34;4208995;28;5692;-59
2024/01/13 12:36:39;;;;;;;;;;;;;;;4.92;55.21;97563.88;4205607;28;5706;-59
2024/01/13 12:38:41;;;;;;;;;;;;;;;4.94;55.26;97559.34;4213493;28;5665;-60
2024/01/13 12:40:46;;;;;;;;;;;;;;;4.95;55.38;97554.91;4216485;28;5687;-59
2024/01/13 12:42:49;;;;;;;;;;;;;;;4.96;55.14;97543.47;4217188;28;5710;-59
2024/01/13 12:44:53;;;;;;;;;;;;;;;4.95;55.25;97550.50;4207873;28;5734;-59
2024/01/13 12:46:58;;;;;;;;;;;;;;;4.92;54.83;97542.09;4217014;28;5625;-59
2024/01/13 12:49:10;;;;;;;;;;;;;;;4.91;55.04;97537.84;4216716;28;5772;-60
2024/01/13 12:51:14;;;;;;;;;;;;;;;4.95;54.99;97539.19;4216788;28;5716;-60
2024/01/13 12:53:26;;;;;;;;;;;;;;;4.96;55.06;97541.66;4204960;28;5755;-60
2024/01/13 12:55:29;;;;;;;;;;;;;;;4.98;54.95;97544.16;4206474;28;6492;-59
2024/01/13 12:57:32;;;;;;;;;;;;;;;4.98;54.95;97536.28;4211291;28;5673;-59
2024/01/13 12:59:35;;;;;;;;;;;;;;;4.96;54.96;97535.59;4211459;28;5803;-60
2024/01/13 13:01:38;;;;;;;;;;;;;;;4.97;54.90;97530.22;4204242;28;5736;-59
2024/01/13 13:03:43;;;;;;;;;;;;;;;5.00;54.71;97523.91;4214812;28;5646;-59
2024/01/13 13:05:47;;;;;;;;;;;;;;;5.01;54.96;97528.16;4201499;28;5660;-59
2024/01/13 13:07:52;;;;;;;;;;;;;;;4.98;54.82;97523.19;4203820;28;5617;-59
2024/01/13 13:09:55;;;;;;;;;;;;;;;4.95;55.00;97528.72;4216949;28;5601;-60
2024/01/13 13:11:59;;;;;;;;;;;;;;;4.92;54.85;97524.59;4214778;28;5709;-59
2024/01/13 13:14:03;;;;;;;;;;;;;;;4.91;54.69;97517.69;4206189;28;6306;-60
2024/01/13 13:16:08;;;;;;;;;;;;;;;4.91;54.84;97507.22;4214255;28;5673;-60
2024/01/13 13:18:10;;;;;;;;;;;;;;;4.91;54.54;97499.34;4205333;28;5714;-59
2024/01/13 13:20:16;;;;;;;;;;;;;;;4.88;54.52;97496.19;4215783;28;6055;-61
2024/01/13 13:22:19;;;;;;;;;;;;;;;4.84;54.56;97489.56;4215030;28;5805;-60
2024/01/13 13:24:21;;;;;;;;;;;;;;;4.85;54.65;97493.84;4216785;28;6102;-60
2024/01/13 13:26:24;;;;;;;;;;;;;;;4.84;54.60;97495.63;4216784;28;5707;-60
2024/01/13 13:28:27;;;;;;;;;;;;;;;4.85;54.61;97497.28;4215606;28;5625;-60
2024/01/13 13:30:31;;;;;;;;;;;;;;;4.88;54.81;97497.03;4218831;28;6477;-60
2024/01/13 13:32:35;;;;;;;;;;;;;;;4.87;54.57;97490.13;4216682;28;5623;-60
2024/01/13 13:34:38;;;;;;;;;;;;;;;4.81;54.67;97501.16;4214098;28;6306;-60
2024/01/13 13:36:43;;;;;;;;;;;;;;;4.81;54.67;97497.72;4216301;28;6262;-60
2024/01/13 13:38:46;;;;;;;;;;;;;;;4.82;54.85;97496.75;4210246;28;5741;-60
2024/01/13 13:40:49;;;;;;;;;;;;;;;4.86;54.68;97493.69;4216844;28;5761;-60
2024/01/13 13:42:52;;;;;;;;;;;;;;;4.87;54.82;97492.75;4208450;28;5629;-60
2024/01/13 13:44:55;;;;;;;;;;;;;;;4.88;54.61;97490.97;4210405;28;5846;-59
2024/01/13 13:47:11;;;;;;;;;;;;;;;4.90;54.47;97491.63;4207372;28;5762;-59
2024/01/13 13:49:14;;;;;;;;;;;;;;;4.92;54.69;97487.06;4216620;28;5617;-59
2024/01/13 13:51:17;;;;;;;;;;;;;;;4.92;54.50;97479.22;4216078;28;5733;-59
2024/01/13 13:53:23;;;;;;;;;;;;;;;4.93;54.73;97479.06;4208202;28;6408;-59
2024/01/13 13:55:27;;;;;;;;;;;;;;;4.96;54.63;97477.97;4215131;28;6418;-59
2024/01/13 13:57:32;;;;;;;;;;;;;;;4.97;54.59;97480.44;4214338;28;5689;-60
2024/01/13 13:59:34;;;;;;;;;;;;;;;5.01;54.38;97481.00;4215923;28;6450;-59
2024/01/13 14:01:37;;;;;;;;;;;;;;;5.01;53.84;97470.50;4216955;28;5733;-59
2024/01/13 14:03:40;;;;;;;;;;;;;;;4.97;53.96;97471.75;4219638;28;5617;-59
2024/01/13 14:05:44;;;;;;;;;;;;;;;4.94;54.17;97469.41;4215859;28;5633;-59
2024/01/13 14:07:48;;;;;;;;;;;;;;;4.95;54.50;97468.44;4214972;28;6322;-59
2024/01/13 14:09:53;;;;;;;;;;;;;;;4.94;54.24;97469.41;4214135;28;6393;-59
2024/01/13 14:11:56;;;;;;;;;;;;;;;4.97;54.34;97463.88;4209492;28;6466;-59
2024/01/13 14:13:59;;;;;;;;;;;;;;;4.96;54.07;97455.19;4217170;28;5608;-60
2024/01/13 14:16:02;;;;;;;;;;;;;;;4.95;54.48;97450.09;4214612;28;5787;-59
2024/01/13 14:18:06;;;;;;;;;;;;;;;4.91;54.20;97464.47;4214618;28;5625;-60
2024/01/13 14:20:10;;;;;;;;;;;;;;;4.90;54.10;97457.56;4212382;28;5708;-60
2024/01/13 14:22:19;;;;;;;;;;;;;;;4.91;54.30;97461.84;4219275;28;6520;-60
2024/01/13 14:24:21;;;;;;;;;;;;;;;4.89;54.37;97454.13;4216100;28;7692;-60
2024/01/13 14:26:26;;;;;;;;;;;;;;;4.88;54.20;97465.59;4219662;28;5825;-59
2024/01/13 14:28:29;;;;;;;;;;;;;;;4.91;54.38;97464.47;4216697;28;5712;-59
2024/01/13 14:30:32;;;;;;;;;;;;;;;4.89;54.11;97455.94;4216172;28;5914;-59
2024/01/13 14:32:36;;;;;;;;;;;;;;;4.90;54.26;97460.19;4214001;28;5711;-59
2024/01/13 14:34:39;;;;;;;;;;;;;;;4.91;54.17;97460.06;4215907;28;5685;-60
2024/01/13 14:36:42;;;;;;;;;;;;;;;4.90;54.27;97454.97;4218585;28;5666;-59
2024/01/13 14:38:45;;;;;;;;;;;;;;;4.90;54.26;97452.34;4218350;28;5673;-59
2024/01/13 14:40:47;;;;;;;;;;;;;;;4.93;54.31;97444.19;4219277;28;5697;-59
2024/01/13 14:42:53;;;;;;;;;;;;;;;4.97;54.29;97442.94;4219316;28;5103;-59
2024/01/13 14:44:56;;;;;;;;;;;;;;;4.97;54.15;97448.16;4211670;28;5617;-61
2024/01/13 14:47:18;;;;;;;;;;;;;;;4.96;54.27;97442.09;4215587;28;5608;-61
2024/01/13 14:49:21;;;;;;;;;;;;;;;4.89;53.91;97440.22;4206472;28;6563;-70
2024/01/13 14:51:24;;;;;;;;;;;;;;;4.85;54.05;97428.34;4211597;28;5733;-64
2024/01/13 14:53:27;;;;;;;;;;;;;;;4.86;54.18;97435.22;4196134;28;5628;-65
2024/01/13 14:55:30;;;;;;;;;;;;;;;4.87;54.17;97439.50;4204880;28;5879;-66
2024/01/13 14:57:34;;;;;;;;;;;;;;;4.86;54.17;97435.22;4190605;28;6002;-68
2024/01/13 14:59:38;;;;;;;;;;;;;;;4.79;54.02;97434.16;4203387;28;5835;-70
2024/01/13 15:01:41;;;;;;;;;;;;;;;4.79;54.07;97439.41;4206028;28;5696;-62
2024/01/13 15:03:44;;;;;;;;;;;;;;;4.80;54.07;97433.19;4209976;28;5750;-65
2024/01/13 15:05:48;;;;;;;;;;;;;;;4.79;54.25;97423.69;4212436;28;5941;-80
2024/01/13 15:07:51;;;;;;;;;;;;;;;4.71;54.19;97431.41;4214572;28;6867;-66
2024/01/13 15:09:57;;;;;;;;;;;;;;;4.70;54.14;97425.34;4207700;28;5763;-69
2024/01/13 15:12:00;;;;;;;;;;;;;;;4.71;54.21;97431.41;4217605;28;6541;-71
2024/01/13 15:14:03;;;;;;;;;;;;;;;4.72;54.30;97422.59;4213367;28;5698;-69
2024/01/13 15:16:07;;;;;;;;;;;;;;;4.74;54.36;97415.41;4213157;28;5703;-69
2024/01/13 15:18:11;;;;;;;;;;;;;;;4.77;54.42;97412.53;4198868;28;6547;-66
2024/01/13 15:20:15;;;;;;;;;;;;;;;4.81;54.39;97414.72;4209111;28;5698;-71
2024/01/13 15:22:19;;;;;;;;;;;;;;;4.84;54.23;97416.22;4215397;28;5609;-66
2024/01/13 15:24:22;;;;;;;;;;;;;;;4.82;54.21;97407.69;4204081;28;5747;-65
2024/01/13 15:26:26;;;;;;;;;;;;;;;4.83;54.33;97406.69;4206240;28;5649;-65
2024/01/13 15:28:29;;;;;;;;;;;;;;;4.81;54.23;97400.78;4201593;28;5824;-73
2024/01/13 15:30:32;;;;;;;;;;;;;;;4.80;54.46;97404.38;4209216;28;5788;-67
2024/01/13 15:32:39;;;;;;;;;;;;;;;4.75;54.45;97407.41;4209270;28;5681;-68
2024/01/13 15:34:43;;;;;;;;;;;;;;;4.75;54.45;97404.78;4206572;28;6149;-66
2024/01/13 15:36:46;;;;;;;;;;;;;;;4.74;54.24;97407.56;4206916;28;5634;-63
2024/01/13 15:38:50;;;;;;;;;;;;;;;4.74;54.52;97397.91;4203945;28;5632;-65
2024/01/13 15:40:55;;;;;;;;;;;;;;;4.78;54.49;97407.16;4204093;28;5827;-61
2024/01/13 15:42:58;;;;;;;;;;;;;;;4.78;54.48;97407.16;4201943;28;5620;-61
2024/01/13 15:45:01;;;;;;;;;;;;;;;4.80;54.41;97407.81;4206022;28;5683;-62
2024/01/13 15:47:14;;;;;;;;;;;;;;;4.82;54.68;97397.19;4205456;28;5780;-64
2024/01/13 15:49:18;;;;;;;;;;;;;;;4.80;54.49;97399.13;4210584;28;6429;-71
2024/01/13 15:51:21;;;;;;;;;;;;;;;4.83;54.63;97407.53;4205310;28;5706;-71
2024/01/13 15:53:25;;;;;;;;;;;;;;;4.84;54.44;97405.72;4202371;28;5919;-67
2024/01/13 15:55:28;;;;;;;;;;;;;;;4.84;54.43;97400.50;4210983;28;5621;-65
2024/01/13 15:57:35;;;;;;;;;;;;;;;4.79;54.55;97393.06;4206696;28;5700;-69
2024/01/13 15:59:39;;;;;;;;;;;;;;;4.77;54.62;97395.00;4203604;28;5744;-70
2024/01/13 16:01:42;;;;;;;;;;;;;;;4.72;54.68;97407.69;4199219;28;5688;-72
2024/01/13 16:03:45;;;;;;;;;;;;;;;4.72;54.69;97406.88;4206484;28;5728;-69
2024/01/13 16:05:50;;;;;;;;;;;;;;;4.67;54.78;97405.50;4207632;28;6163;-71
2024/01/13 16:07:53;;;;;;;;;;;;;;;4.71;54.77;97411.28;4203110;28;5771;-62
2024/01/13 16:09:57;;;;;;;;;;;;;;;4.73;54.70;97408.53;4208322;28;5664;-62
2024/01/13 16:12:01;;;;;;;;;;;;;;;4.71;54.75;97394.75;4214864;28;5747;-62
2024/01/13 16:14:04;;;;;;;;;;;;;;;4.77;54.97;97399.44;4213013;28;6337;-62
2024/01/13 16:16:07;;;;;;;;;;;;;;;4.83;54.80;97404.09;4209610;28;6342;-63
2024/01/13 16:18:10;;;;;;;;;;;;;;;4.82;54.74;97398.03;4208014;28;5675;-62
2024/01/13 16:20:14;;;;;;;;;;;;;;;4.80;54.77;97404.38;4212335;28;5873;-62
2024/01/13 16:22:19;;;;;;;;;;;;;;;4.82;54.92;97391.97;4211741;28;5620;-63
2024/01/13 16:24:23;;;;;;;;;;;;;;;4.84;55.06;97392.63;4215040;28;5707;-62
2024/01/13 16:26:26;;;;;;;;;;;;;;;4.83;54.98;97380.50;4211043;28;5613;-64
2024/01/13 16:28:32;;;;;;;;;;;;;;;4.83;55.09;97381.34;4203266;28;5757;-63
2024/01/13 16:30:36;;;;;;;;;;;;;;;4.85;54.98;97386.44;4213185;28;5660;-63
2024/01/13 16:32:50;;;;;;;;;;;;;;;4.82;54.87;97386.72;4214067;28;5688;-64
2024/01/13 16:34:53;;;;;;;;;;;;;;;4.81;54.87;97387.69;4206638;28;5613;-63
2024/01/13 16:36:58;;;;;;;;;;;;;;;4.83;54.96;97383.13;4215443;28;5712;-63
2024/01/13 16:39:03;;;;;;;;;;;;;;;4.82;54.92;97384.09;4202623;28;5601;-62
2024/01/13 16:41:07;;;;;;;;;;;;;;;4.83;54.83;97385.75;4210510;28;5617;-63
2024/01/13 16:43:10;;;;;;;;;;;;;;;4.82;54.96;97381.47;4215814;28;5617;-63
2024/01/13 16:45:15;;;;;;;;;;;;;;;4.86;55.04;97388.06;4206758;28;5616;-63
2024/01/13 16:47:19;;;;;;;;;;;;;;;4.88;54.87;97391.41;4199411;28;5862;-61
2024/01/13 16:49:22;;;;;;;;;;;;;;;4.87;54.93;97389.72;4209544;28;5173;-62
2024/01/13 16:51:24;;;;;;;;;;;;;;;4.87;54.93;97395.81;4210268;28;5620;-62
2024/01/13 16:53:28;;;;;;;;;;;;;;;4.85;54.91;97389.88;4214122;28;5708;-62
2024/01/13 16:55:32;;;;;;;;;;;;;;;4.86;54.91;97390.69;4211541;28;5758;-63
2024/01/13 16:57:35;;;;;;;;;;;;;;;4.83;54.58;97398.84;4207292;28;5613;-64
2024/01/13 16:59:40;;;;;;;;;;;;;;;4.73;54.88;97398.88;4202035;28;5617;-63
2024/01/13 17:01:45;;;;;;;;;;;;;;;4.69;54.96;97392.28;4202158;28;5730;-67
2024/01/13 17:03:48;;;;;;;;;;;;;;;4.68;55.05;97388.00;4203034;28;5726;-68
2024/01/13 17:05:52;;;;;;;;;;;;;;;4.67;55.03;97387.19;4201329;28;5781;-74
2024/01/13 17:07:55;;;;;;;;;;;;;;;4.67;54.95;97387.19;4199815;28;5781;-65
2024/01/13 17:09:59;;;;;;;;;;;;;;;4.65;54.93;97380.44;4208365;28;6090;-65
2024/01/13 17:12:04;;;;;;;;;;;;;;;4.64;55.06;97384.84;4210040;28;5639;-64
2024/01/13 17:14:07;;;;;;;;;;;;;;;4.62;55.08;97385.94;4211522;28;5913;-67
2024/01/13 17:16:11;;;;;;;;;;;;;;;4.62;55.01;97383.31;4204163;28;5826;-66
2024/01/13 17:18:15;;;;;;;;;;;;;;;4.61;55.14;97384.28;4198922;28;5631;-66
2024/01/13 17:20:18;;;;;;;;;;;;;;;4.62;55.16;97381.53;4198370;28;5843;-65
2024/01/13 17:22:21;;;;;;;;;;;;;;;4.63;54.98;97383.16;4202638;28;5633;-67
2024/01/13 17:24:39;;;;;;;;;;;;;;;4.64;55.13;97384.00;4201992;28;5795;-67
2024/01/13 17:26:41;;;;;;;;;;;;;;;4.65;54.95;97385.69;4203057;28;5823;-67
2024/01/13 17:28:45;;;;;;;;;;;;;;;4.70;55.00;97375.59;4207085;28;5609;-66
2024/01/13 17:30:48;;;;;;;;;;;;;;;4.73;55.02;97372.66;4213057;28;6389;-65
2024/01/13 17:32:53;;;;;;;;;;;;;;;4.74;55.06;97376.13;4209241;28;5778;-66
2024/01/13 17:34:58;;;;;;;;;;;;;;;4.71;55.10;97381.66;4206809;28;5722;-65
2024/01/13 17:37:03;;;;;;;;;;;;;;;4.65;54.98;97385.69;4208350;28;5631;-66
2024/01/13 17:39:06;;;;;;;;;;;;;;;4.64;55.13;97382.22;4203464;28;5754;-65
2024/01/13 17:41:09;;;;;;;;;;;;;;;4.63;55.10;97380.56;4207914;28;5614;-66
2024/01/13 17:43:11;;;;;;;;;;;;;;;4.61;55.19;97366.78;4203453;28;5625;-65
2024/01/13 17:45:16;;;;;;;;;;;;;;;4.64;55.28;97363.91;4202473;28;5613;-64
2024/01/13 17:47:20;;;;;;;;;;;;;;;4.68;55.26;97369.66;4203652;28;5726;-64
2024/01/13 17:49:24;;;;;;;;;;;;;;;4.68;55.09;97377.53;4202827;28;5754;-64
2024/01/13 17:51:28;;;;;;;;;;;;;;;4.68;55.18;97380.16;4203618;28;5616;-64
2024/01/13 17:53:31;;;;;;;;;;;;;;;4.64;55.02;97373.53;4200819;28;5704;-64
2024/01/13 17:55:34;;;;;;;;;;;;;;;4.62;55.03;97381.53;4203145;28;5863;-64
2024/01/13 17:57:38;;;;;;;;;;;;;;;4.65;55.11;97378.66;4199413;28;5795;-64
2024/01/13 17:59:41;;;;;;;;;;;;;;;4.61;55.04;97379.88;4206114;28;5831;-64
2024/01/13 18:01:46;;;;;;;;;;;;;;;4.59;55.09;97386.22;4202926;28;5624;-64
2024/01/13 18:03:50;;;;;;;;;;;;;;;4.54;55.15;97384.03;4204511;28;5823;-65
2024/01/13 18:05:53;;;;;;;;;;;;;;;4.54;55.09;97375.38;4202770;28;6200;-65
2024/01/13 18:07:56;;;;;;;;;;;;;;;4.50;55.04;97376.59;4207423;28;5747;-65
2024/01/13 18:09:59;;;;;;;;;;;;;;;4.49;55.43;97374.94;4218298;28;5692;-68
2024/01/13 18:12:02;;;;;;;;;;;;;;;4.51;55.60;97376.44;4215039;28;5721;-67
2024/01/13 18:14:06;;;;;;;;;;;;;;;4.56;55.62;97376.88;4214652;28;5835;-67
2024/01/13 18:16:09;;;;;;;;;;;;;;;4.62;55.23;97373.66;4210718;28;6514;-67
2024/01/13 18:18:13;;;;;;;;;;;;;;;4.62;55.15;97381.53;4218286;28;5752;-65
2024/01/13 18:20:16;;;;;;;;;;;;;;;4.62;55.40;97371.03;4218448;28;5684;-66
2024/01/13 18:22:19;;;;;;;;;;;;;;;4.65;55.52;97364.72;4218231;28;5747;-67
2024/01/13 18:24:24;;;;;;;;;;;;;;;4.65;55.43;97362.94;4217395;28;5604;-67
2024/01/13 18:26:28;;;;;;;;;;;;;;;4.67;55.32;97360.16;4204510;28;5755;-66
2024/01/13 18:28:31;;;;;;;;;;;;;;;4.70;55.38;97359.88;4209825;28;5867;-66
2024/01/13 18:30:37;;;;;;;;;;;;;;;4.75;55.60;97359.44;4211608;28;5800;-66
2024/01/13 18:32:39;;;;;;;;;;;;;;;4.77;55.35;97363.59;4217619;28;5948;-65
2024/01/13 18:34:44;;;;;;;;;;;;;;;4.80;55.54;97365.09;4213653;28;5158;-68
2024/01/13 18:36:48;;;;;;;;;;;;;;;4.75;55.40;97365.50;4218434;28;7723;-65
2024/01/13 18:38:51;;;;;;;;;;;;;;;4.76;55.51;97361.94;4214402;28;5795;-67
2024/01/13 18:40:54;;;;;;;;;;;;;;;4.77;55.49;97362.75;4217870;28;5776;-66
2024/01/13 18:42:57;;;;;;;;;;;;;;;4.75;55.73;97370.72;4216339;28;5625;-67
2024/01/13 18:45:00;;;;;;;;;;;;;;;4.77;55.69;97370.63;4216009;28;5723;-66
2024/01/13 18:47:03;;;;;;;;;;;;;;;4.80;55.72;97367.69;4212949;28;5833;-66
2024/01/13 18:49:06;;;;;;;;;;;;;;;4.83;55.73;97373.47;4214007;28;5624;-66
2024/01/13 18:51:13;;;;;;;;;;;;;;;4.85;55.76;97368.91;4217347;28;5729;-67
2024/01/13 18:53:19;;;;;;;;;;;;;;;4.88;55.90;97366.03;4209488;28;5632;-66
2024/01/13 18:55:22;;;;;;;;;;;;;;;4.91;55.86;97370.97;4215087;28;5649;-67
2024/01/13 18:57:24;;;;;;;;;;;;;;;4.92;55.88;97362.13;4211244;28;5616;-66
2024/01/13 18:59:27;;;;;;;;;;;;;;;4.92;55.69;97372.63;4211529;28;5094;-67
2024/01/13 19:01:31;;;;;;;;;;;;;;;4.93;55.72;97358.53;4208854;28;7730;-66
2024/01/13 19:03:34;;;;;;;;;;;;;;;4.90;55.74;97369.31;4217293;28;5794;-67
2024/01/13 19:05:37;;;;;;;;;;;;;;;4.81;55.74;97366.72;4209591;28;5791;-68
2024/01/13 19:07:41;;;;;;;;;;;;;;;4.83;55.87;97372.66;4211738;28;6370;-70
2024/01/13 19:09:45;;;;;;;;;;;;;;;4.87;55.96;97363.53;4213058;28;5711;-69
2024/01/13 19:11:47;;;;;;;;;;;;;;;4.81;55.76;97357.06;4207879;28;5622;-68
2024/01/13 19:13:52;;;;;;;;;;;;;;;4.79;55.97;97355.56;4211101;28;5593;-67
2024/01/13 19:15:55;;;;;;;;;;;;;;;4.79;55.91;97350.34;4211198;28;5053;-71
2024/01/13 19:17:57;;;;;;;;;;;;;;;4.80;56.02;97344.13;4210995;28;5860;-74
2024/01/13 19:20:00;;;;;;;;;;;;;;;4.81;56.13;97336.13;4209227;28;5834;-69
2024/01/13 19:22:04;;;;;;;;;;;;;;;4.82;56.07;97336.94;4209311;28;5869;-66
2024/01/13 19:24:09;;;;;;;;;;;;;;;4.83;55.97;97341.22;4213903;28;5708;-68
2024/01/13 19:26:14;;;;;;;;;;;;;;;4.82;56.11;97329.91;4177793;28;5827;-69
2024/01/13 19:28:17;;;;;;;;;;;;;;;4.87;56.21;97332.09;4180839;28;5854;-71
2024/01/13 19:30:20;;;;;;;;;;;;;;;4.86;56.29;97336.50;4182676;28;5911;-69
2024/01/13 19:32:23;;;;;;;;;;;;;;;4.86;56.38;97338.28;4184048;28;5716;-69
2024/01/13 19:34:25;;;;;;;;;;;;;;;4.90;56.19;97337.06;4184704;28;5818;-67
2024/01/13 19:36:28;;;;;;;;;;;;;;;4.92;56.35;97337.72;4182869;28;5724;-68
2024/01/13 19:38:32;;;;;;;;;;;;;;;4.91;56.18;97330.84;4183390;28;5724;-70
2024/01/13 19:40:36;;;;;;;;;;;;;;;4.93;56.53;97334.97;4183618;28;5720;-70
2024/01/13 19:42:39;;;;;;;;;;;;;;;4.95;56.45;97330.41;4172971;28;5818;-71
2024/01/13 19:44:42;;;;;;;;;;;;;;;4.94;56.48;97322.69;4183397;28;5783;-67
2024/01/13 19:46:45;;;;;;;;;;;;;;;4.96;56.62;97325.97;4176551;28;6444;-66
2024/01/13 19:48:48;;;;;;;;;;;;;;;4.97;56.31;97327.63;4180994;28;5934;-70
2024/01/13 19:50:52;;;;;;;;;;;;;;;4.94;56.55;97328.75;4178948;28;5804;-67
2024/01/13 19:52:55;;;;;;;;;;;;;;;4.95;56.49;97326.97;4178667;28;5935;-71
2024/01/13 19:54:58;;;;;;;;;;;;;;;4.93;56.58;97321.88;4182263;28;5723;-72
2024/01/13 19:57:02;;;;;;;;;;;;;;;4.91;56.50;97321.19;4177382;28;5882;-73
2024/01/13 19:59:05;;;;;;;;;;;;;;;4.86;56.48;97314.72;4181391;28;5712;-69
2024/01/13 20:01:09;;;;;;;;;;;;;;;4.87;56.58;97305.88;4175379;28;5708;-70
2024/01/13 20:03:13;;;;;;;;;;;;;;;4.85;56.83;97307.84;4176342;28;6394;-70
2024/01/13 20:05:17;;;;;;;;;;;;;;;4.87;56.50;97298.03;4182686;28;5716;-70
2024/01/13 20:07:20;;;;;;;;;;;;;;;4.90;56.71;97300.38;4183340;28;5721;-70
2024/01/13 20:09:23;;;;;;;;;;;;;;;4.93;56.69;97294.84;4177401;28;5803;-71
2024/01/13 20:11:27;;;;;;;;;;;;;;;4.95;56.64;97303.38;4181539;28;5846;-70
2024/01/13 20:13:33;;;;;;;;;;;;;;;4.97;56.59;97304.88;4182790;28;5874;-69
2024/01/13 20:15:35;;;;;;;;;;;;;;;5.02;56.73;97303.63;4179407;28;5719;-71
2024/01/13 20:17:39;;;;;;;;;;;;;;;5.02;56.84;97304.44;4175388;28;5781;-73
2024/01/13 20:19:42;;;;;;;;;;;;;;;5.01;56.79;97302.81;4177936;28;5833;-68
2024/01/13 20:21:45;;;;;;;;;;;;;;;5.00;56.90;97297.72;4173130;28;5832;-72
2024/01/13 20:23:49;;;;;;;;;;;;;;;4.98;56.89;97295.22;4181580;28;5940;-70
2024/01/13 20:25:52;;;;;;;;;;;;;;;4.98;56.67;97292.59;4206879;28;5743;-70